Time;durP1;ratioP1;P1;durP2;ratioP2;P2;SDS_P1;SDS_P2;PMS_P1;PMS_P2;Temp;Humidity;BMP_temperature;BMP_pressure;BME280_temperature;BME280_humidity;BME280_pressure;Samples;Min_cycle;Max_cycle;Signal;HPM_P1;HPM_P2
2021/05/27 00:02:25;;;;;;;19.60;11.70;;;;;;;;;;5074860;28;20483;-68
2021/05/27 00:04:51;;;;;;;22.27;12.67;;;;;;;;;;5072581;28;20962;-69
2021/05/27 00:07:17;;;;;;;21.77;12.10;;;;;;;;;;5078799;28;21217;-67
2021/05/27 00:09:43;;;;;;;21.30;12.00;;;;;;;;;;5076241;28;20487;-69
2021/05/27 00:12:09;;;;;;;20.38;12.40;;;;;;;;;;5078301;28;20399;-69
2021/05/27 00:14:35;;;;;;;17.95;11.70;;;;;;;;;;5076734;28;20386;-68
2021/05/27 00:17:01;;;;;;;19.38;11.20;;;;;;;;;;5077689;28;20401;-68
2021/05/27 00:19:27;;;;;;;19.80;11.75;;;;;;;;;;5090929;28;20448;-68
2021/05/27 00:21:53;;;;;;;19.27;11.27;;;;;;;;;;5077094;28;20433;-68
2021/05/27 00:24:19;;;;;;;20.65;12.20;;;;;;;;;;5075995;28;20755;-68
2021/05/27 00:26:45;;;;;;;20.42;10.77;;;;;;;;;;5076879;28;20474;-69
2021/05/27 00:29:11;;;;;;;19.98;10.98;;;;;;;;;;5079143;28;20711;-69
2021/05/27 00:31:37;;;;;;;16.58;10.57;;;;;;;;;;5082849;28;20482;-68
2021/05/27 00:34:04;;;;;;;18.33;11.00;;;;;;;;;;5077240;28;20415;-68
2021/05/27 00:36:31;;;;;;;17.58;10.57;;;;;;;;;;5079654;28;20415;-69
2021/05/27 00:38:57;;;;;;;16.67;9.77;;;;;;;;;;5079863;28;20461;-68
2021/05/27 00:41:23;;;;;;;18.02;10.43;;;;;;;;;;5078359;28;20420;-69
2021/05/27 00:43:49;;;;;;;17.77;10.67;;;;;;;;;;5072949;28;20425;-68
2021/05/27 00:46:15;;;;;;;17.48;9.77;;;;;;;;;;5081723;28;20490;-69
2021/05/27 00:49:00;;;;;;;18.45;10.30;;;;;;;;;;5078148;28;20848;-67
2021/05/27 00:51:28;;;;;;;15.50;10.23;;;;;;;;;;5075791;28;20403;-69
2021/05/27 00:53:55;;;;;;;18.73;10.75;;;;;;;;;;5077596;28;20849;-69
2021/05/27 00:56:24;;;;;;;18.00;10.55;;;;;;;;;;5077650;28;21918;-68
2021/05/27 00:58:50;;;;;;;15.07;9.63;;;;;;;;;;5078421;28;20398;-68
2021/05/27 01:01:16;;;;;;;17.20;9.95;;;;;;;;;;5076813;28;20484;-68
2021/05/27 01:03:42;;;;;;;15.95;9.68;;;;;;;;;;5082484;28;20381;-69
2021/05/27 01:06:08;;;;;;;16.85;9.63;;;;;;;;;;5082411;28;20411;-69
2021/05/27 01:08:35;;;;;;;19.52;10.23;;;;;;;;;;5080939;28;20427;-68
2021/05/27 01:11:01;;;;;;;19.25;9.85;;;;;;;;;;5079669;28;20402;-69
2021/05/27 01:13:27;;;;;;;15.90;9.75;;;;;;;;;;5083932;28;20389;-68
2021/05/27 01:15:53;;;;;;;16.15;8.75;;;;;;;;;;5084540;28;20386;-68
2021/05/27 01:18:22;;;;;;;16.08;9.40;;;;;;;;;;5086358;28;20398;-68
2021/05/27 01:20:50;;;;;;;17.75;9.68;;;;;;;;;;5075828;28;20464;-69
2021/05/27 01:23:16;;;;;;;17.67;10.47;;;;;;;;;;5079906;28;21187;-68
2021/05/27 01:25:44;;;;;;;16.30;10.18;;;;;;;;;;5079998;28;20398;-69
2021/05/27 01:28:11;;;;;;;16.92;10.07;;;;;;;;;;5084273;28;20432;-69
2021/05/27 01:30:38;;;;;;;17.40;10.48;;;;;;;;;;5082976;28;20859;-69
2021/05/27 01:33:05;;;;;;;17.55;10.55;;;;;;;;;;5073707;28;21006;-68
2021/05/27 01:35:31;;;;;;;15.88;10.55;;;;;;;;;;5077602;28;20909;-68
2021/05/27 01:37:57;;;;;;;17.27;10.77;;;;;;;;;;5084249;28;20400;-68
2021/05/27 01:40:24;;;;;;;20.48;11.10;;;;;;;;;;5079344;28;20804;-68
2021/05/27 01:42:50;;;;;;;18.03;10.87;;;;;;;;;;5078329;28;20850;-68
2021/05/27 01:45:17;;;;;;;16.73;10.43;;;;;;;;;;5080656;28;20393;-68
2021/05/27 01:47:44;;;;;;;17.50;10.15;;;;;;;;;;5084268;28;20555;-68
2021/05/27 01:50:10;;;;;;;16.95;10.93;;;;;;;;;;5075830;28;20456;-68
2021/05/27 01:52:36;;;;;;;16.67;9.70;;;;;;;;;;5082785;28;20407;-69
2021/05/27 01:55:03;;;;;;;17.27;9.57;;;;;;;;;;5078346;28;20386;-68
2021/05/27 01:57:29;;;;;;;17.42;9.60;;;;;;;;;;5085086;28;20402;-68
2021/05/27 01:59:55;;;;;;;16.93;9.63;;;;;;;;;;5082550;28;20438;-67
2021/05/27 02:02:21;;;;;;;16.10;8.85;;;;;;;;;;5078099;28;20488;-69
2021/05/27 02:04:47;;;;;;;16.05;9.35;;;;;;;;;;5083434;28;20533;-68
2021/05/27 02:07:14;;;;;;;15.98;9.70;;;;;;;;;;5079681;28;20891;-69
2021/05/27 02:09:41;;;;;;;16.92;9.38;;;;;;;;;;5082220;28;20719;-69
2021/05/27 02:12:07;;;;;;;13.32;8.73;;;;;;;;;;5080201;28;20394;-69
2021/05/27 02:14:33;;;;;;;16.55;9.18;;;;;;;;;;5085906;28;20485;-68
2021/05/27 02:16:59;;;;;;;12.70;8.35;;;;;;;;;;5082378;28;20421;-69
2021/05/27 02:19:25;;;;;;;14.32;8.68;;;;;;;;;;5082489;28;20428;-68
2021/05/27 02:21:51;;;;;;;14.57;8.32;;;;;;;;;;5082218;28;20420;-70
2021/05/27 02:24:17;;;;;;;15.93;8.63;;;;;;;;;;5080551;28;20402;-67
2021/05/27 02:26:43;;;;;;;13.50;8.48;;;;;;;;;;5078675;28;20416;-68
2021/05/27 02:29:09;;;;;;;13.77;8.83;;;;;;;;;;5074204;28;20442;-68
2021/05/27 02:31:35;;;;;;;11.85;8.43;;;;;;;;;;5078593;28;20428;-69
2021/05/27 02:34:01;;;;;;;15.10;8.10;;;;;;;;;;5083387;28;20382;-69
2021/05/27 02:36:28;;;;;;;12.40;7.38;;;;;;;;;;5074191;28;20402;-67
2021/05/27 02:38:54;;;;;;;13.13;7.95;;;;;;;;;;5082189;28;20931;-69
2021/05/27 02:41:20;;;;;;;15.13;7.88;;;;;;;;;;5077257;28;20952;-69
2021/05/27 02:43:46;;;;;;;12.95;7.07;;;;;;;;;;5078554;28;20423;-69
2021/05/27 02:46:12;;;;;;;12.65;7.28;;;;;;;;;;5084272;28;20481;-68
2021/05/27 02:48:38;;;;;;;14.85;7.18;;;;;;;;;;5075221;28;20809;-68
2021/05/27 02:51:06;;;;;;;12.30;7.28;;;;;;;;;;5081974;28;20404;-69
2021/05/27 02:53:32;;;;;;;14.53;7.80;;;;;;;;;;5077308;28;20428;-68
2021/05/27 02:55:58;;;;;;;13.52;7.00;;;;;;;;;;5079826;28;20404;-69
2021/05/27 02:58:24;;;;;;;14.95;7.15;;;;;;;;;;5077655;28;20919;-69
2021/05/27 03:00:50;;;;;;;12.95;7.38;;;;;;;;;;5081605;28;20399;-68
2021/05/27 03:03:17;;;;;;;13.45;7.43;;;;;;;;;;5077326;28;20442;-69
2021/05/27 03:05:43;;;;;;;15.10;7.47;;;;;;;;;;5081444;28;21161;-68
2021/05/27 03:08:09;;;;;;;14.02;7.60;;;;;;;;;;5080082;28;20415;-68
2021/05/27 03:10:35;;;;;;;14.75;7.45;;;;;;;;;;5080546;28;20401;-68
2021/05/27 03:13:01;;;;;;;12.15;7.47;;;;;;;;;;5078763;28;20398;-68
2021/05/27 03:15:27;;;;;;;14.65;8.18;;;;;;;;;;5082668;28;20458;-69
2021/05/27 03:17:53;;;;;;;14.32;7.88;;;;;;;;;;5077286;28;20396;-68
2021/05/27 03:20:19;;;;;;;12.77;7.95;;;;;;;;;;5077499;28;20461;-68
2021/05/27 03:22:45;;;;;;;14.87;8.27;;;;;;;;;;5079262;28;20457;-67
2021/05/27 03:25:12;;;;;;;15.20;8.38;;;;;;;;;;5081278;28;20470;-69
2021/05/27 03:27:38;;;;;;;15.23;8.10;;;;;;;;;;5076589;28;20418;-69
2021/05/27 03:30:04;;;;;;;13.60;8.10;;;;;;;;;;5078849;28;20478;-69
2021/05/27 03:32:30;;;;;;;14.88;8.27;;;;;;;;;;5078033;28;20726;-69
2021/05/27 03:34:56;;;;;;;13.80;8.17;;;;;;;;;;5078097;28;20511;-69
2021/05/27 03:37:22;;;;;;;17.85;8.80;;;;;;;;;;5080788;28;20867;-69
2021/05/27 03:42:33;;;;;;;15.65;8.60;;;;;;;;;;5081168;28;20433;-69
2021/05/27 03:45:03;;;;;;;15.57;8.52;;;;;;;;;;5075374;28;20431;-68
2021/05/27 03:47:29;;;;;;;15.57;8.60;;;;;;;;;;5078163;28;20489;-69
2021/05/27 03:49:55;;;;;;;15.98;8.10;;;;;;;;;;5077832;28;20404;-67
2021/05/27 03:52:21;;;;;;;16.27;9.27;;;;;;;;;;5082554;28;20407;-68
2021/05/27 03:54:47;;;;;;;13.95;7.93;;;;;;;;;;5081914;28;20401;-68
2021/05/27 03:57:13;;;;;;;14.95;8.77;;;;;;;;;;5079242;28;20450;-69
2021/05/27 04:02:23;;;;;;;16.60;9.45;;;;;;;;;;5077028;28;20874;-69
2021/05/27 04:07:36;;;;;;;14.38;8.60;;;;;;;;;;5078213;28;20495;-67
2021/05/27 04:10:02;;;;;;;17.67;9.38;;;;;;;;;;5076314;28;20389;-68
2021/05/27 04:12:46;;;;;;;15.93;8.60;;;;;;;;;;5080746;28;20394;-69
2021/05/27 04:15:25;;;;;;;17.87;8.93;;;;;;;;;;5078786;28;20429;-68
2021/05/27 04:17:57;;;;;;;15.23;8.98;;;;;;;;;;5074978;28;20923;-68
2021/05/27 04:20:30;;;;;;;17.35;8.60;;;;;;;;;;5072765;28;20545;-68
2021/05/27 04:22:56;;;;;;;17.42;9.40;;;;;;;;;;5077096;28;20451;-67
2021/05/27 04:25:25;;;;;;;16.00;9.05;;;;;;;;;;5079780;28;20772;-69
2021/05/27 04:27:52;;;;;;;17.23;9.27;;;;;;;;;;5080992;28;20840;-68
2021/05/27 04:30:19;;;;;;;20.00;9.90;;;;;;;;;;5083485;28;20470;-68
2021/05/27 04:35:45;;;;;;;18.10;9.13;;;;;;;;;;5074497;28;20489;-69
2021/05/27 04:38:15;;;;;;;16.73;8.75;;;;;;;;;;5080571;28;20378;-69
2021/05/27 04:40:43;;;;;;;18.23;8.75;;;;;;;;;;5079619;28;20395;-69
2021/05/27 04:43:09;;;;;;;17.88;8.40;;;;;;;;;;5079308;28;20890;-68
2021/05/27 04:45:36;;;;;;;16.70;8.70;;;;;;;;;;5081358;28;20387;-68
2021/05/27 04:48:09;;;;;;;18.25;8.65;;;;;;;;;;5084792;28;20562;-69
2021/05/27 04:50:35;;;;;;;15.30;8.70;;;;;;;;;;5082229;28;20471;-68
2021/05/27 04:53:00;;;;;;;16.20;8.77;;;;;;;;;;5085657;28;20410;-68
2021/05/27 04:55:26;;;;;;;17.55;8.77;;;;;;;;;;5080924;28;20403;-69
2021/05/27 04:57:53;;;;;;;16.47;7.97;;;;;;;;;;5079958;28;20846;-68
2021/05/27 05:00:20;;;;;;;20.02;9.82;;;;;;;;;;5079587;28;20466;-69
2021/05/27 05:02:46;;;;;;;19.17;8.75;;;;;;;;;;5084773;28;20444;-69
2021/05/27 05:05:13;;;;;;;14.93;8.55;;;;;;;;;;5074944;28;20745;-69
2021/05/27 05:07:40;;;;;;;16.90;9.18;;;;;;;;;;5082840;28;20432;-67
2021/05/27 05:10:06;;;;;;;18.87;9.00;;;;;;;;;;5082479;28;20394;-68
2021/05/27 05:12:46;;;;;;;15.52;8.18;;;;;;;;;;5083574;28;20394;-68
2021/05/27 05:15:16;;;;;;;15.48;7.93;;;;;;;;;;5081849;28;21090;-68
2021/05/27 05:17:42;;;;;;;15.43;7.82;;;;;;;;;;5079961;28;20396;-68
2021/05/27 05:20:09;;;;;;;17.70;7.63;;;;;;;;;;5080232;28;20715;-69
2021/05/27 05:22:36;;;;;;;14.98;7.75;;;;;;;;;;5082086;28;20388;-69
2021/05/27 05:25:02;;;;;;;12.33;7.30;;;;;;;;;;5080368;28;20480;-70
2021/05/27 05:27:28;;;;;;;18.38;7.93;;;;;;;;;;5084109;28;21004;-68
2021/05/27 05:29:54;;;;;;;16.55;7.88;;;;;;;;;;5085621;28;20461;-68
2021/05/27 05:32:20;;;;;;;14.20;7.72;;;;;;;;;;5078487;28;20388;-68
2021/05/27 05:34:46;;;;;;;14.60;7.97;;;;;;;;;;5083553;28;20909;-70
2021/05/27 05:37:12;;;;;;;12.10;7.15;;;;;;;;;;5076501;28;20390;-68
2021/05/27 05:39:38;;;;;;;16.55;8.10;;;;;;;;;;5079054;28;20399;-68
2021/05/27 05:42:04;;;;;;;15.83;7.60;;;;;;;;;;5079683;28;20401;-68
2021/05/27 05:44:30;;;;;;;16.88;8.02;;;;;;;;;;5076083;28;20410;-69
2021/05/27 05:46:56;;;;;;;14.75;7.43;;;;;;;;;;5079564;28;20455;-69
2021/05/27 05:49:22;;;;;;;16.42;8.00;;;;;;;;;;5087292;28;20421;-68
2021/05/27 05:51:48;;;;;;;18.10;7.93;;;;;;;;;;5076498;28;20428;-69
2021/05/27 05:54:14;;;;;;;13.95;7.30;;;;;;;;;;5078092;28;20395;-68
2021/05/27 05:56:40;;;;;;;16.30;7.67;;;;;;;;;;5076066;28;20393;-68
2021/05/27 05:59:06;;;;;;;17.85;7.65;;;;;;;;;;5081694;28;20394;-68
2021/05/27 06:01:32;;;;;;;18.08;8.18;;;;;;;;;;5080520;28;20492;-69
2021/05/27 06:03:58;;;;;;;21.45;8.85;;;;;;;;;;5077207;28;20408;-69
2021/05/27 06:06:24;;;;;;;16.77;8.00;;;;;;;;;;5082451;28;20401;-69
2021/05/27 06:08:50;;;;;;;18.02;8.27;;;;;;;;;;5079364;28;20433;-69
2021/05/27 06:11:16;;;;;;;23.05;8.88;;;;;;;;;;5085722;28;20506;-68
2021/05/27 06:13:42;;;;;;;24.63;14.70;;;;;;;;;;5078415;28;20472;-68
2021/05/27 06:16:08;;;;;;;23.25;14.00;;;;;;;;;;5079021;28;20396;-68
2021/05/27 06:18:34;;;;;;;19.17;10.35;;;;;;;;;;5077869;28;20478;-68
2021/05/27 06:21:00;;;;;;;19.47;9.33;;;;;;;;;;5083638;28;20404;-68
2021/05/27 06:23:26;;;;;;;19.02;8.15;;;;;;;;;;5078174;28;20789;-68
2021/05/27 06:25:53;;;;;;;20.05;9.27;;;;;;;;;;5084133;28;20504;-68
2021/05/27 06:28:19;;;;;;;18.48;9.40;;;;;;;;;;5078393;28;20885;-67
2021/05/27 06:30:45;;;;;;;19.83;9.30;;;;;;;;;;5087327;28;20915;-68
2021/05/27 06:33:11;;;;;;;17.95;8.75;;;;;;;;;;5079658;28;20508;-68
2021/05/27 06:35:37;;;;;;;17.90;8.77;;;;;;;;;;5076620;28;20859;-68
2021/05/27 06:38:04;;;;;;;19.08;8.90;;;;;;;;;;5078382;28;20888;-69
2021/05/27 06:40:30;;;;;;;18.48;8.23;;;;;;;;;;5082239;28;20475;-68
2021/05/27 06:42:56;;;;;;;20.55;9.43;;;;;;;;;;5078233;28;20850;-68
2021/05/27 06:45:23;;;;;;;19.33;8.32;;;;;;;;;;5075239;28;22049;-69
2021/05/27 06:47:49;;;;;;;21.17;8.60;;;;;;;;;;5080565;28;20827;-69
2021/05/27 06:50:32;;;;;;;18.42;7.95;;;;;;;;;;5084264;28;20426;-69
2021/05/27 06:52:58;;;;;;;18.97;8.37;;;;;;;;;;5080883;28;20540;-69
2021/05/27 06:55:24;;;;;;;20.25;7.97;;;;;;;;;;5078126;28;20400;-68
2021/05/27 06:57:50;;;;;;;19.73;7.77;;;;;;;;;;5080916;28;20413;-68
2021/05/27 07:00:19;;;;;;;16.95;7.95;;;;;;;;;;5083400;28;20496;-68
2021/05/27 07:02:45;;;;;;;21.25;8.15;;;;;;;;;;5083878;28;20459;-69
2021/05/27 07:05:12;;;;;;;21.20;8.90;;;;;;;;;;5086584;28;20421;-69
2021/05/27 07:07:38;;;;;;;19.35;8.00;;;;;;;;;;5084768;28;20453;-68
2021/05/27 07:10:09;;;;;;;18.17;7.72;;;;;;;;;;5076111;28;20877;-70
2021/05/27 07:12:35;;;;;;;16.38;7.93;;;;;;;;;;5082507;28;20902;-70
2021/05/27 07:15:02;;;;;;;17.10;7.28;;;;;;;;;;5076288;28;20502;-69
2021/05/27 07:17:28;;;;;;;17.33;7.50;;;;;;;;;;5080236;28;20763;-68
2021/05/27 07:19:54;;;;;;;16.92;7.22;;;;;;;;;;5081144;28;20465;-69
2021/05/27 07:22:20;;;;;;;18.23;7.53;;;;;;;;;;5084163;28;20404;-68
2021/05/27 07:24:47;;;;;;;18.08;7.75;;;;;;;;;;5084635;28;20494;-68
2021/05/27 07:27:13;;;;;;;16.80;7.05;;;;;;;;;;5081086;28;20416;-69
2021/05/27 07:29:39;;;;;;;16.95;7.30;;;;;;;;;;5084191;28;20392;-69
2021/05/27 07:32:06;;;;;;;16.88;7.32;;;;;;;;;;5077384;28;20395;-68
2021/05/27 07:34:32;;;;;;;15.85;6.68;;;;;;;;;;5075585;28;20444;-68
2021/05/27 07:36:58;;;;;;;16.88;7.20;;;;;;;;;;5080260;28;20411;-68
2021/05/27 07:39:24;;;;;;;13.57;6.10;;;;;;;;;;5079030;28;20907;-68
2021/05/27 07:41:50;;;;;;;16.13;7.18;;;;;;;;;;5071439;28;20394;-69
2021/05/27 07:44:16;;;;;;;14.40;6.72;;;;;;;;;;5078281;28;20421;-69
2021/05/27 07:46:42;;;;;;;20.50;7.60;;;;;;;;;;5079443;28;20893;-68
2021/05/27 07:49:08;;;;;;;18.02;8.50;;;;;;;;;;5076459;28;21199;-69
2021/05/27 07:51:34;;;;;;;35.43;21.53;;;;;;;;;;5079595;28;20394;-71
2021/05/27 07:54:00;;;;;;;43.08;25.67;;;;;;;;;;5080527;28;20891;-69
2021/05/27 07:56:26;;;;;;;21.15;9.45;;;;;;;;;;5082380;28;20469;-68
2021/05/27 07:58:53;;;;;;;18.73;9.93;;;;;;;;;;5080105;28;20775;-67
2021/05/27 08:01:19;;;;;;;21.67;10.65;;;;;;;;;;5079901;28;20466;-68
2021/05/27 08:03:45;;;;;;;18.40;10.02;;;;;;;;;;5081416;28;20406;-69
2021/05/27 08:06:11;;;;;;;20.57;13.40;;;;;;;;;;5082970;28;20390;-69
2021/05/27 08:08:37;;;;;;;22.65;10.18;;;;;;;;;;5078421;28;20431;-69
2021/05/27 08:11:03;;;;;;;24.85;11.38;;;;;;;;;;5079568;28;20398;-69
2021/05/27 08:13:29;;;;;;;22.95;11.63;;;;;;;;;;5079999;28;20779;-69
2021/05/27 08:15:55;;;;;;;20.95;11.40;;;;;;;;;;5081429;28;20390;-68
2021/05/27 08:18:21;;;;;;;18.95;10.65;;;;;;;;;;5081867;28;20394;-68
2021/05/27 08:20:47;;;;;;;20.10;9.13;;;;;;;;;;5077886;28;20523;-68
2021/05/27 08:23:13;;;;;;;20.33;8.77;;;;;;;;;;5078623;28;20486;-69
2021/05/27 08:25:39;;;;;;;21.13;9.27;;;;;;;;;;5079383;28;20401;-68
2021/05/27 08:28:05;;;;;;;19.33;9.15;;;;;;;;;;5078964;28;20441;-68
2021/05/27 08:30:31;;;;;;;26.02;10.25;;;;;;;;;;5078186;28;20437;-70
2021/05/27 08:32:57;;;;;;;20.38;8.75;;;;;;;;;;5078097;28;20394;-68
2021/05/27 08:35:23;;;;;;;19.23;9.05;;;;;;;;;;5077717;28;20506;-69
2021/05/27 08:37:49;;;;;;;20.97;10.13;;;;;;;;;;5081091;28;20733;-69
2021/05/27 08:40:15;;;;;;;18.58;9.73;;;;;;;;;;5078282;28;20941;-68
2021/05/27 08:42:42;;;;;;;22.83;10.38;;;;;;;;;;5076851;28;20402;-68
2021/05/27 08:45:09;;;;;;;21.95;9.43;;;;;;;;;;5075052;28;20418;-67
2021/05/27 08:47:35;;;;;;;19.00;8.87;;;;;;;;;;5075061;28;20417;-68
2021/05/27 08:50:01;;;;;;;20.20;8.73;;;;;;;;;;5075060;28;20497;-69
2021/05/27 08:52:27;;;;;;;19.38;8.65;;;;;;;;;;5076555;28;20409;-67
2021/05/27 08:54:53;;;;;;;17.42;8.07;;;;;;;;;;5080532;28;20382;-69
2021/05/27 08:57:19;;;;;;;19.30;8.45;;;;;;;;;;5076955;28;20384;-69
2021/05/27 08:59:45;;;;;;;22.55;8.85;;;;;;;;;;5081357;28;20863;-69
2021/05/27 09:02:12;;;;;;;22.13;8.73;;;;;;;;;;5081920;28;20393;-68
2021/05/27 09:04:39;;;;;;;19.13;8.45;;;;;;;;;;5082795;28;20404;-68
2021/05/27 09:07:05;;;;;;;23.25;8.45;;;;;;;;;;5078335;28;20782;-68
2021/05/27 09:09:50;;;;;;;21.50;8.90;;;;;;;;;;5080924;28;20473;-68
2021/05/27 09:12:29;;;;;;;24.42;8.75;;;;;;;;;;5079954;28;20848;-68
2021/05/27 09:14:57;;;;;;;21.40;8.27;;;;;;;;;;5077467;28;20409;-68
2021/05/27 09:17:23;;;;;;;21.90;8.75;;;;;;;;;;5086428;28;20434;-67
2021/05/27 09:20:08;;;;;;;23.00;8.80;;;;;;;;;;5087477;28;20573;-67
2021/05/27 09:22:34;;;;;;;19.42;8.55;;;;;;;;;;5083156;28;20478;-69
2021/05/27 09:25:01;;;;;;;21.00;8.57;;;;;;;;;;5083554;28;20481;-70
2021/05/27 09:27:45;;;;;;;23.70;8.73;;;;;;;;;;5082105;28;20421;-67
2021/05/27 09:30:12;;;;;;;21.17;8.90;;;;;;;;;;5085808;28;20393;-69
2021/05/27 09:32:45;;;;;;;21.25;8.70;;;;;;;;;;5085356;28;20409;-69
2021/05/27 09:35:12;;;;;;;21.90;8.68;;;;;;;;;;5086037;28;20436;-69
2021/05/27 09:37:38;;;;;;;22.45;8.57;;;;;;;;;;5091363;28;20476;-69
2021/05/27 09:40:06;;;;;;;23.33;8.60;;;;;;;;;;5082981;28;20887;-69
2021/05/27 09:42:52;;;;;;;23.50;8.95;;;;;;;;;;5083614;28;20395;-69
2021/05/27 09:45:20;;;;;;;22.70;8.57;;;;;;;;;;5082440;28;20613;-70
2021/05/27 09:47:46;;;;;;;19.40;8.85;;;;;;;;;;5080722;28;20479;-69
2021/05/27 09:50:12;;;;;;;23.35;8.35;;;;;;;;;;5084525;28;20396;-69
2021/05/27 09:52:42;;;;;;;21.20;8.25;;;;;;;;;;5079435;28;20940;-69
2021/05/27 09:55:18;;;;;;;18.93;8.23;;;;;;;;;;5085916;28;20622;-69
2021/05/27 09:57:46;;;;;;;19.08;8.10;;;;;;;;;;5092176;28;20398;-67
2021/05/27 10:00:28;;;;;;;18.87;8.20;;;;;;;;;;5100424;28;20440;-68
2021/05/27 10:02:54;;;;;;;21.65;8.25;;;;;;;;;;5095107;28;20391;-70
2021/05/27 10:05:21;;;;;;;19.83;8.43;;;;;;;;;;5079205;28;20384;-69
2021/05/27 10:07:49;;;;;;;18.95;7.50;;;;;;;;;;5087126;28;20405;-68
2021/05/27 10:10:19;;;;;;;15.20;7.32;;;;;;;;;;5084490;28;20398;-70
2021/05/27 10:12:47;;;;;;;19.95;6.90;;;;;;;;;;5096381;28;20458;-68
2021/05/27 10:15:16;;;;;;;16.17;7.13;;;;;;;;;;5080759;28;20487;-70
2021/05/27 10:17:43;;;;;;;17.17;7.22;;;;;;;;;;5089929;28;20467;-68
2021/05/27 10:20:09;;;;;;;15.30;6.55;;;;;;;;;;5078453;28;20787;-69
2021/05/27 10:22:35;;;;;;;12.73;6.40;;;;;;;;;;5084947;28;20433;-68
2021/05/27 10:25:03;;;;;;;14.82;6.60;;;;;;;;;;5083545;28;20394;-68
2021/05/27 10:27:29;;;;;;;13.53;6.57;;;;;;;;;;5081404;28;20441;-69
2021/05/27 10:29:56;;;;;;;14.45;6.30;;;;;;;;;;5083394;28;20427;-69
2021/05/27 10:32:23;;;;;;;12.95;6.50;;;;;;;;;;5077263;28;20407;-69
2021/05/27 10:34:52;;;;;;;14.82;6.40;;;;;;;;;;5080442;28;20413;-68
2021/05/27 10:37:39;;;;;;;14.68;6.53;;;;;;;;;;5078109;28;20540;-69
2021/05/27 10:40:23;;;;;;;16.48;7.10;;;;;;;;;;5079795;28;20724;-69
2021/05/27 10:42:58;;;;;;;21.58;8.25;;;;;;;;;;5075085;28;20415;-69
2021/05/27 10:45:25;;;;;;;16.90;7.60;;;;;;;;;;5072562;28;20409;-69
2021/05/27 10:48:09;;;;;;;15.95;7.22;;;;;;;;;;5076618;28;20435;-68
2021/05/27 10:50:52;;;;;;;17.63;7.27;;;;;;;;;;5074899;28;20426;-70
2021/05/27 10:53:42;;;;;;;21.08;7.82;;;;;;;;;;5075668;28;20448;-68
2021/05/27 10:56:19;;;;;;;18.90;7.53;;;;;;;;;;5064816;28;20388;-68
2021/05/27 10:58:54;;;;;;;22.40;8.40;;;;;;;;;;5073530;28;20404;-71
2021/05/27 11:01:29;;;;;;;16.40;6.97;;;;;;;;;;5076196;28;20418;-70
2021/05/27 11:03:55;;;;;;;20.38;8.27;;;;;;;;;;5071351;28;20414;-68
2021/05/27 11:06:30;;;;;;;18.85;8.10;;;;;;;;;;5076145;28;20394;-68
2021/05/27 11:09:09;;;;;;;17.25;7.78;;;;;;;;;;5073963;28;20430;-68
2021/05/27 11:11:40;;;;;;;22.05;8.38;;;;;;;;;;5075639;28;20398;-68
2021/05/27 11:14:16;;;;;;;19.42;8.43;;;;;;;;;;5074846;28;20394;-68
2021/05/27 11:17:01;;;;;;;19.52;7.70;;;;;;;;;;5074237;28;20399;-68
2021/05/27 11:25:09;;;;;;;17.50;6.10;;;;;;;;;;5078367;28;20851;-69
2021/05/27 11:27:39;;;;;;;16.27;5.90;;;;;;;;;;5078092;28;20456;-71
2021/05/27 11:30:19;;;;;;;14.48;4.82;;;;;;;;;;5070827;28;20903;-69
2021/05/27 11:32:46;;;;;;;11.48;3.83;;;;;;;;;;5072854;28;20398;-69
2021/05/27 11:35:12;;;;;;;12.52;4.03;;;;;;;;;;5074520;28;20447;-68
2021/05/27 11:37:40;;;;;;;13.45;3.97;;;;;;;;;;5071145;28;20383;-69
2021/05/27 11:40:07;;;;;;;10.90;3.47;;;;;;;;;;5077155;28;20486;-70
2021/05/27 11:42:34;;;;;;;11.50;3.50;;;;;;;;;;5077436;28;20869;-68
2021/05/27 11:45:01;;;;;;;11.68;3.63;;;;;;;;;;5083379;28;20451;-71
2021/05/27 11:47:30;;;;;;;9.90;3.30;;;;;;;;;;5077410;28;20442;-68
2021/05/27 11:50:04;;;;;;;12.05;3.10;;;;;;;;;;5075670;28;20419;-68
2021/05/27 11:52:31;;;;;;;9.25;2.80;;;;;;;;;;5073898;28;20413;-67
2021/05/27 11:54:57;;;;;;;11.93;3.38;;;;;;;;;;5078711;28;20390;-67
2021/05/27 11:57:39;;;;;;;9.23;3.00;;;;;;;;;;5078638;28;20390;-67
2021/05/27 12:00:06;;;;;;;10.68;3.30;;;;;;;;;;5075802;28;20461;-68
2021/05/27 12:02:53;;;;;;;9.88;3.08;;;;;;;;;;5077405;28;20389;-67
2021/05/27 12:05:22;;;;;;;10.93;3.20;;;;;;;;;;5075126;28;20418;-67
2021/05/27 12:08:05;;;;;;;10.93;3.17;;;;;;;;;;5078871;28;20448;-67
2021/05/27 12:10:34;;;;;;;12.57;3.38;;;;;;;;;;5080605;28;20394;-67
2021/05/27 12:13:00;;;;;;;10.48;3.22;;;;;;;;;;5080942;28;20404;-67
2021/05/27 12:15:27;;;;;;;13.60;3.80;;;;;;;;;;5075604;28;20869;-67
2021/05/27 12:17:56;;;;;;;12.00;3.40;;;;;;;;;;5074426;28;20394;-67
2021/05/27 12:20:30;;;;;;;15.70;3.80;;;;;;;;;;5080794;28;20876;-67
2021/05/27 12:23:02;;;;;;;14.60;3.65;;;;;;;;;;5081196;28;20725;-67
2021/05/27 12:25:31;;;;;;;11.25;3.20;;;;;;;;;;5078108;28;20403;-67
2021/05/27 12:27:58;;;;;;;13.00;3.60;;;;;;;;;;5083803;28;20414;-68
2021/05/27 12:30:30;;;;;;;13.73;3.53;;;;;;;;;;5077145;28;20481;-67
2021/05/27 12:32:57;;;;;;;14.55;4.15;;;;;;;;;;5073397;28;20396;-67
2021/05/27 12:35:34;;;;;;;13.65;3.67;;;;;;;;;;5084414;28;20390;-67
2021/05/27 12:38:01;;;;;;;14.32;4.15;;;;;;;;;;5080062;28;20720;-67
2021/05/27 12:40:35;;;;;;;13.65;3.53;;;;;;;;;;5079215;28;20389;-66
2021/05/27 12:43:02;;;;;;;12.73;3.60;;;;;;;;;;5077477;28;20441;-66
2021/05/27 12:45:39;;;;;;;13.57;3.92;;;;;;;;;;5081778;28;20469;-66
2021/05/27 12:48:14;;;;;;;12.23;3.70;;;;;;;;;;5079279;28;20744;-70
2021/05/27 12:50:44;;;;;;;12.40;3.55;;;;;;;;;;5078462;28;20425;-70
2021/05/27 12:53:29;;;;;;;13.73;3.50;;;;;;;;;;5082371;28;20410;-68
2021/05/27 12:55:57;;;;;;;11.68;3.50;;;;;;;;;;5084668;28;20881;-68
2021/05/27 12:58:27;;;;;;;12.98;3.72;;;;;;;;;;5088083;28;20386;-67
2021/05/27 13:00:53;;;;;;;14.07;3.78;;;;;;;;;;5080434;28;20766;-68
2021/05/27 13:03:19;;;;;;;12.90;3.28;;;;;;;;;;5083836;28;20436;-68
2021/05/27 13:05:45;;;;;;;17.30;3.42;;;;;;;;;;5079424;28;20439;-67
2021/05/27 13:08:11;;;;;;;13.27;3.53;;;;;;;;;;5080755;28;20470;-68
2021/05/27 13:10:38;;;;;;;11.77;3.53;;;;;;;;;;5083318;28;20532;-68
2021/05/27 13:13:05;;;;;;;14.02;3.58;;;;;;;;;;5086505;28;20478;-67
2021/05/27 13:15:39;;;;;;;12.33;3.23;;;;;;;;;;5082242;28;20401;-67
2021/05/27 13:18:12;;;;;;;13.93;3.40;;;;;;;;;;5083079;28;20893;-68
2021/05/27 13:20:55;;;;;;;13.77;3.70;;;;;;;;;;5076768;28;20895;-68
2021/05/27 13:23:27;;;;;;;14.68;3.70;;;;;;;;;;5084353;28;20398;-68
2021/05/27 13:26:07;;;;;;;16.80;4.43;;;;;;;;;;5074686;28;20383;-68
2021/05/27 13:28:33;;;;;;;15.57;3.93;;;;;;;;;;5091901;28;20421;-67
2021/05/27 13:30:59;;;;;;;11.60;3.25;;;;;;;;;;5085137;28;20843;-67
2021/05/27 13:33:25;;;;;;;11.95;3.55;;;;;;;;;;5089416;28;20411;-67
2021/05/27 13:35:55;;;;;;;16.17;3.78;;;;;;;;;;5093254;28;20446;-66
2021/05/27 13:38:22;;;;;;;12.68;3.55;;;;;;;;;;5079615;28;20394;-68
2021/05/27 13:40:49;;;;;;;10.52;3.40;;;;;;;;;;5080968;28;20789;-68
2021/05/27 13:43:15;;;;;;;11.60;3.05;;;;;;;;;;5082304;28;20469;-68
2021/05/27 13:45:41;;;;;;;13.83;3.70;;;;;;;;;;5086763;28;20412;-67
2021/05/27 13:48:08;;;;;;;11.77;3.15;;;;;;;;;;5087542;28;20429;-67
2021/05/27 13:50:34;;;;;;;12.38;3.30;;;;;;;;;;5083249;28;20983;-68
2021/05/27 13:53:03;;;;;;;9.93;3.00;;;;;;;;;;5094267;28;20386;-67
2021/05/27 13:55:32;;;;;;;12.30;3.30;;;;;;;;;;5083124;28;20884;-66
2021/05/27 13:57:58;;;;;;;12.18;3.20;;;;;;;;;;5086823;28;20404;-67
2021/05/27 14:00:24;;;;;;;12.47;3.03;;;;;;;;;;5082490;28;20472;-67
2021/05/27 14:02:51;;;;;;;14.73;3.30;;;;;;;;;;5078627;28;20489;-67
2021/05/27 14:05:18;;;;;;;9.73;2.88;;;;;;;;;;5078296;28;20904;-66
2021/05/27 14:07:48;;;;;;;9.98;2.60;;;;;;;;;;5080287;28;20421;-69
2021/05/27 14:10:14;;;;;;;11.23;3.05;;;;;;;;;;5085109;28;20395;-67
2021/05/27 14:12:41;;;;;;;12.27;3.53;;;;;;;;;;5086490;28;20478;-67
2021/05/27 14:15:07;;;;;;;13.07;3.40;;;;;;;;;;5077864;28;20544;-68
2021/05/27 14:17:33;;;;;;;9.18;2.70;;;;;;;;;;5079042;28;20406;-66
2021/05/27 14:19:59;;;;;;;11.25;3.17;;;;;;;;;;5085095;28;20460;-68
2021/05/27 14:22:27;;;;;;;13.53;3.10;;;;;;;;;;5091757;28;20394;-67
2021/05/27 14:24:53;;;;;;;10.93;3.20;;;;;;;;;;5084403;28;20392;-68
2021/05/27 14:27:19;;;;;;;12.93;3.17;;;;;;;;;;5079918;28;20768;-67
2021/05/27 14:29:46;;;;;;;11.10;3.20;;;;;;;;;;5081288;28;20424;-67
2021/05/27 14:32:12;;;;;;;11.82;3.10;;;;;;;;;;5076375;28;20405;-68
2021/05/27 14:34:38;;;;;;;12.05;3.70;;;;;;;;;;5077698;28;20394;-68
2021/05/27 14:37:04;;;;;;;12.18;3.40;;;;;;;;;;5088103;28;20388;-66
2021/05/27 14:39:30;;;;;;;14.40;3.50;;;;;;;;;;5075863;28;20398;-67
2021/05/27 14:41:56;;;;;;;14.30;3.33;;;;;;;;;;5077813;28;21059;-68
2021/05/27 14:44:22;;;;;;;11.20;3.30;;;;;;;;;;5077423;28;20843;-67
2021/05/27 14:46:48;;;;;;;13.73;3.53;;;;;;;;;;5086587;28;20508;-67
2021/05/27 14:49:14;;;;;;;11.10;3.17;;;;;;;;;;5079860;28;20416;-67
2021/05/27 14:51:40;;;;;;;11.25;3.47;;;;;;;;;;5080425;28;20390;-71